This demonstration page uses our WeatherBlox Daily Observations layout. Learn more.

Hourly Observations for June 24, 2017

Temp ( °F °C ) Dew Point ( °F °C ) Humidity (%) Winds ( mph kmh ) Pressure ( in mb ) Visibility ( mi km ) Precip ( " mm )
12:15 am 00:15 Partly Cloudy N/A N/A N/A SSW 12 19 N/A 10 16.09344 0 0
12:35 am 00:35 Mostly Cloudy with Light Drizzle 81 27 73 23 79 79 SSW 10 17 29.65 1004 10 16.09344 0 0
12:55 am 00:55 Cloudy with Light Rain N/A N/A N/A SSW 9 15 N/A 10 16.09344 0 0
1:15 am 01:15 Mostly Cloudy with Light Rain N/A N/A N/A SW 12 19 N/A 10 16.09344 0.01 0.254
1:35 am 01:35 Mostly Cloudy with Rain N/A N/A N/A SW 16 26 N/A 10 16.09344 0.02 0.508
1:55 am 01:55 Cloudy with Rain N/A N/A N/A SW 8 13 N/A 7 11.265408 0.06 1.524
2:15 am 02:15 Cloudy with Light Rain N/A N/A N/A S 5 7 N/A 7 11.265408 0.03 0.762
2:35 am 02:35 Cloudy with Rain N/A N/A N/A S 3 6 N/A 10 16.09344 0.04 1.016
2:55 am 02:55 Cloudy N/A N/A N/A SSE 5 7 N/A 10 16.09344 0.05 1.27
3:15 am 03:15 Cloudy N/A N/A N/A SSE 7 11 N/A 10 16.09344 0 0
3:35 am 03:35 Cloudy N/A N/A N/A S 6 9 N/A 10 16.09344 0 0
3:55 am 03:55 Cloudy with Heavy Rain N/A N/A N/A NW 17 28 N/A 3 4.828032 0.1 2.54
4:15 am 04:15 Cloudy with Light Rain N/A N/A N/A NNW 16 26 N/A 7 11.265408 0.03 0.762
4:35 am 04:35 Cloudy N/A N/A N/A NW 14 22 N/A 10 16.09344 0.03 0.762
4:55 am 04:55 Cloudy N/A N/A N/A NNW 13 20 N/A 10 16.09344 0.03 0.762
5:15 am 05:15 Cloudy N/A N/A N/A NW 9 15 N/A 10 16.09344 0 0
5:35 am 05:35 Partly Cloudy N/A N/A N/A NW 14 22 N/A 10 16.09344 0 0
5:55 am 05:55 Sunny N/A N/A N/A NW 10 17 N/A 10 16.09344 0 0
6:15 am 06:15 Sunny N/A N/A N/A WNW 8 13 N/A 10 16.09344 0 0
6:35 am 06:35 Sunny N/A N/A N/A NW 6 9 N/A 10 16.09344 0 0
6:55 am 06:55 Sunny N/A N/A N/A NW 9 15 N/A 10 16.09344 0 0
7:15 am 07:15 Sunny N/A N/A N/A WNW 10 17 N/A 10 16.09344 0 0
7:35 am 07:35 Sunny N/A N/A N/A WNW 12 19 N/A 10 16.09344 0 0
7:55 am 07:55 Sunny N/A N/A N/A WNW 13 20 N/A 10 16.09344 0 0
8:15 am 08:15 Mostly Cloudy N/A N/A N/A WNW 15 24 N/A 10 16.09344 0 0
8:35 am 08:35 Cloudy N/A N/A N/A WNW 14 22 N/A 10 16.09344 0 0
8:55 am 08:55 Cloudy N/A N/A N/A WNW 8 13 N/A 10 16.09344 0 0
9:15 am 09:15 Cloudy N/A N/A N/A WNW 15 24 N/A 10 16.09344 0 0
9:35 am 09:35 Partly Cloudy N/A N/A N/A WNW 21 33 N/A 10 16.09344 0 0
9:55 am 09:55 Sunny 79 26 70 21 74 74 NW 15 24 29.85 1011 10 16.09344 0 0
10:15 am 10:15 Mostly Cloudy N/A N/A N/A WNW 16 26 N/A 10 16.09344 0 0
10:35 am 10:35 Cloudy N/A N/A N/A NW 13 20 N/A 10 16.09344 0 0
10:55 am 10:55 Partly Cloudy N/A N/A N/A WNW 15 24 N/A 10 16.09344 0 0
11:15 am 11:15 Sunny N/A N/A N/A NW 17 28 N/A 10 16.09344 0 0
11:35 am 11:35 Partly Cloudy N/A N/A N/A NW 15 24 N/A 10 16.09344 0 0
11:55 am 11:55 Mostly Cloudy N/A N/A N/A WNW 15 24 N/A 10 16.09344 0 0
12:15 pm 12:15 Partly Cloudy N/A N/A N/A NW 15 24 N/A 10 16.09344 0 0
12:35 pm 12:35 Sunny N/A N/A N/A NW 16 26 N/A 10 16.09344 0 0
12:55 pm 12:55 Partly Cloudy N/A N/A N/A NW 14 22 N/A 10 16.09344 0 0
1:15 pm 13:15 Partly Cloudy N/A N/A N/A NW 10 17 N/A 10 16.09344 0 0
1:35 pm 13:35 Partly Cloudy N/A N/A N/A W 14 22 N/A 10 16.09344 0 0
1:55 pm 13:55 Partly Cloudy N/A N/A N/A WNW 16 26 N/A 10 16.09344 0 0
2:15 pm 14:15 Partly Cloudy N/A N/A N/A WNW 9 15 N/A 10 16.09344 0 0
2:35 pm 14:35 Sunny N/A N/A N/A WNW 12 19 N/A 10 16.09344 0 0
2:55 pm 14:55 Sunny N/A N/A N/A W 7 11 N/A 10 16.09344 0 0
3:15 pm 15:15 Partly Cloudy N/A N/A N/A W 14 22 N/A 10 16.09344 0 0
3:35 pm 15:35 Partly Cloudy N/A N/A N/A WNW 13 20 N/A 10 16.09344 0 0
3:55 pm 15:55 Partly Cloudy N/A N/A N/A W 6 9 N/A 10 16.09344 0 0
4:15 pm 16:15 Sunny N/A N/A N/A W 8 13 N/A 10 16.09344 0 0
4:35 pm 16:35 Sunny N/A N/A N/A W 12 19 N/A 10 16.09344 0 0
4:55 pm 16:55 Sunny N/A N/A N/A W 8 13 N/A 10 16.09344 0 0
5:15 pm 17:15 Sunny N/A N/A N/A WNW 10 17 N/A 10 16.09344 0 0
5:35 pm 17:35 Sunny N/A N/A N/A WNW 13 20 N/A 10 16.09344 0 0
5:55 pm 17:55 Sunny N/A N/A N/A W 9 15 N/A 10 16.09344 0 0
6:15 pm 18:15 Sunny N/A N/A N/A WNW 7 11 N/A 10 16.09344 0 0
6:35 pm 18:35 Sunny N/A N/A N/A W 5 7 N/A 10 16.09344 0 0
6:55 pm 18:55 Sunny N/A N/A N/A W 5 7 N/A 10 16.09344 0 0
7:15 pm 19:15 Sunny N/A N/A N/A WSW 3 6 N/A 10 16.09344 0 0
7:35 pm 19:35 Sunny N/A N/A N/A Calm N/A 10 16.09344 0 0
7:55 pm 19:55 Sunny N/A N/A N/A Calm N/A 10 16.09344 0 0
8:15 pm 20:15 Sunny N/A N/A N/A SW 3 6 N/A 10 16.09344 0 0
8:35 pm 20:35 Sunny N/A N/A N/A SW 5 7 N/A 10 16.09344 0 0
8:55 pm 20:55 Clear N/A N/A N/A SSW 3 6 N/A 10 16.09344 0 0
9:15 pm 21:15 Clear N/A N/A N/A WSW 3 6 N/A 10 16.09344 0 0
9:35 pm 21:35 Clear N/A N/A N/A W 3 6 N/A 10 16.09344 0 0
9:55 pm 21:55 Clear N/A N/A N/A W 3 6 N/A 10 16.09344 0 0
10:15 pm 22:15 Clear N/A N/A N/A W 3 6 N/A 10 16.09344 0 0
10:35 pm 22:35 Clear N/A N/A N/A W 5 7 N/A 10 16.09344 0 0
10:55 pm 22:55 Clear N/A N/A N/A W 3 6 N/A 10 16.09344 0 0
11:15 pm 23:15 Clear N/A N/A N/A W 6 9 N/A 10 16.09344 0 0
11:35 pm 23:35 Partly Cloudy N/A N/A N/A W 3 6 N/A 10 16.09344 0 0
11:55 pm 23:55 Cloudy N/A N/A N/A W 6 9 N/A 10 16.09344 0 0

Powered by AerisWeather